createdAt,value
2019-05-02T00:00:13.843Z,24.90
2019-05-02T00:02:45.118Z,24.70
2019-05-02T00:05:19.329Z,24.27
2019-05-02T00:07:53.890Z,24.60
2019-05-02T00:10:26.067Z,23.97
2019-05-02T00:12:57.977Z,23.53
2019-05-02T00:15:33.187Z,23.87
2019-05-02T00:18:04.593Z,24.63
2019-05-02T00:20:35.841Z,24.53
2019-05-02T00:23:09.243Z,23.40
2019-05-02T00:25:47.246Z,25.10
2019-05-02T00:28:19.809Z,24.23
2019-05-02T00:30:50.970Z,23.33
2019-05-02T00:33:22.483Z,23.93
2019-05-02T00:35:53.959Z,24.57
2019-05-02T00:38:27.933Z,25.30
2019-05-02T00:41:02.170Z,24.30
2019-05-02T00:43:34.581Z,24.83
2019-05-02T00:46:06.445Z,26.50
2019-05-02T00:48:44.189Z,24.50
2019-05-02T00:51:15.655Z,23.80
2019-05-02T00:53:48.434Z,26.20
2019-05-02T00:56:21.892Z,24.13
2019-05-02T00:58:56.617Z,23.00
2019-05-02T01:01:48.437Z,23.40
2019-05-02T01:04:28.831Z,23.97
2019-05-02T01:07:00.454Z,23.97
2019-05-02T01:09:32.540Z,25.07
2019-05-02T01:12:08.411Z,23.77
2019-05-02T01:14:37.786Z,22.70
2019-05-02T01:17:09.422Z,22.33
2019-05-02T01:19:42.429Z,23.07
2019-05-02T01:22:16.008Z,24.07
2019-05-02T01:24:46.672Z,23.13
2019-05-02T01:27:53.022Z,25.03
2019-05-02T01:30:43.894Z,22.23
2019-05-02T01:33:52.421Z,23.80
2019-05-02T01:36:30.233Z,22.73
2019-05-02T01:39:02.845Z,23.47
2019-05-02T01:41:36.002Z,23.43
2019-05-02T01:44:09.719Z,22.47
2019-05-02T01:46:41.867Z,25.23
2019-05-02T01:49:16.835Z,23.67
2019-05-02T01:51:51.546Z,25.23
2019-05-02T01:54:22.779Z,24.10
2019-05-02T01:56:54.339Z,25.27
2019-05-02T01:59:29.081Z,25.53
2019-05-02T02:02:00.753Z,25.60
2019-05-02T02:04:31.940Z,26.30
2019-05-02T02:07:03.667Z,26.13
2019-05-02T02:09:38.798Z,26.00
2019-05-02T02:12:11.463Z,24.33
2019-05-02T02:14:48.039Z,25.27
2019-05-02T02:17:17.417Z,25.90
2019-05-02T02:19:53.392Z,25.67
2019-05-02T02:22:42.351Z,24.43
2019-05-02T02:25:52.071Z,25.30
2019-05-02T02:28:23.124Z,25.83
2019-05-02T02:30:57.842Z,24.90
2019-05-02T02:33:27.675Z,26.37
2019-05-02T02:36:00.138Z,25.93
2019-05-02T02:38:33.789Z,23.93
2019-05-02T02:41:12.513Z,22.90
2019-05-02T02:43:41.941Z,23.83
2019-05-02T02:46:37.709Z,24.30
2019-05-02T02:49:06.365Z,24.20
2019-05-02T02:51:37.902Z,22.43
2019-05-02T02:54:08.978Z,22.73
2019-05-02T02:56:40.956Z,25.30
2019-05-02T02:59:19.329Z,25.43
2019-05-02T03:01:47.459Z,23.83
2019-05-02T03:04:20.170Z,25.50
2019-05-02T03:06:51.947Z,25.80
2019-05-02T03:09:26.494Z,26.00
2019-05-02T03:12:13.759Z,25.77
2019-05-02T03:14:50.662Z,25.27
2019-05-02T03:17:49.295Z,25.53
2019-05-02T03:20:20.523Z,27.10
2019-05-02T03:22:51.952Z,26.57
2019-05-02T03:25:27.027Z,25.17
2019-05-02T03:27:57.120Z,25.37
2019-05-02T03:30:36.036Z,26.97
2019-05-02T03:33:10.279Z,26.30
2019-05-02T03:35:42.784Z,28.00
2019-05-02T03:38:08.246Z,26.10
2019-05-02T03:40:41.369Z,27.07
2019-05-02T03:43:18.935Z,25.97
2019-05-02T03:45:46.474Z,28.10
2019-05-02T03:48:25.856Z,25.40
2019-05-02T03:50:51.456Z,26.10
2019-05-02T03:53:25.376Z,24.20
2019-05-02T03:55:56.639Z,25.03
2019-05-02T03:58:28.798Z,23.03
2019-05-02T04:01:03.357Z,23.80
2019-05-02T04:03:40.881Z,22.90
2019-05-02T04:06:14.072Z,21.93
2019-05-02T04:08:43.571Z,22.97
2019-05-02T04:11:26.552Z,24.00
2019-05-02T04:13:59.712Z,23.97
2019-05-02T04:16:31.910Z,23.60
2019-05-02T04:19:05.446Z,24.27
2019-05-02T04:21:41.496Z,21.57
2019-05-02T04:24:15.880Z,23.03
2019-05-02T04:26:56.080Z,23.43
2019-05-02T04:29:24.437Z,23.03
2019-05-02T04:31:54.885Z,23.53
2019-05-02T04:34:26.006Z,21.97
2019-05-02T04:37:01.272Z,23.03
2019-05-02T04:39:31.170Z,22.50
2019-05-02T04:42:12.929Z,23.10
2019-05-02T04:45:26.346Z,22.27
2019-05-02T04:47:58.991Z,23.77
2019-05-02T04:50:29.454Z,22.97
2019-05-02T04:53:00.276Z,21.67
2019-05-02T04:55:33.461Z,22.50
2019-05-02T04:58:08.154Z,23.57
2019-05-02T05:00:44.970Z,23.97
2019-05-02T05:03:15.478Z,23.80
2019-05-02T05:05:48.221Z,25.10
2019-05-02T05:08:26.187Z,24.57
2019-05-02T05:10:53.718Z,25.10
2019-05-02T05:13:26.459Z,25.30
2019-05-02T05:16:02.896Z,23.77
2019-05-02T05:18:33.616Z,26.13
2019-05-02T05:21:04.667Z,25.43
2019-05-02T05:23:59.510Z,23.90
2019-05-02T05:26:28.110Z,25.70
2019-05-02T05:29:00.391Z,24.13
2019-05-02T05:31:31.537Z,23.30
2019-05-02T05:34:02.993Z,24.93
2019-05-02T05:36:37.466Z,24.43
2019-05-02T05:39:11.655Z,25.70
2019-05-02T05:41:42.650Z,25.27
2019-05-02T05:44:18.236Z,24.43
2019-05-02T05:46:49.626Z,26.03
2019-05-02T05:49:21.887Z,22.43
2019-05-02T05:51:54.313Z,25.97
2019-05-02T05:54:28.303Z,24.30
2019-05-02T05:57:01.819Z,25.27
2019-05-02T05:59:33.330Z,26.20
2019-05-02T06:02:05.615Z,25.77
2019-05-02T06:04:38.873Z,24.10
2019-05-02T06:07:10.112Z,25.03
2019-05-02T06:09:41.569Z,24.40
2019-05-02T06:12:12.713Z,25.27
2019-05-02T06:14:46.424Z,24.60
2019-05-02T06:17:23.016Z,25.33
2019-05-02T06:19:53.595Z,23.97
2019-05-02T06:22:25.688Z,26.17
2019-05-02T06:24:58.392Z,25.93
2019-05-02T06:27:30.495Z,23.50
2019-05-02T06:30:01.798Z,24.83
2019-05-02T06:32:33.658Z,26.00
2019-05-02T06:35:04.994Z,23.50
2019-05-02T06:37:40.473Z,25.47
2019-05-02T06:40:13.044Z,25.83
2019-05-02T06:42:46.099Z,25.50
2019-05-02T06:45:19.062Z,28.07
2019-05-02T06:47:50.776Z,25.63
2019-05-02T06:50:24.969Z,25.30
2019-05-02T06:52:58.083Z,25.23
2019-05-02T06:55:36.279Z,24.80
2019-05-02T06:58:08.229Z,24.03
2019-05-02T07:00:55.902Z,25.27
2019-05-02T07:03:12.603Z,25.83
2019-05-02T07:05:43.947Z,25.10
2019-05-02T07:08:15.139Z,23.27
2019-05-02T07:10:48.094Z,23.20
2019-05-02T07:13:19.142Z,24.00
2019-05-02T07:16:00.655Z,24.03
2019-05-02T07:18:35.761Z,23.90
2019-05-02T07:21:07.450Z,23.00
2019-05-02T07:23:39.698Z,23.30
2019-05-02T07:26:15.530Z,23.67
2019-05-02T07:28:47.187Z,24.13
2019-05-02T07:31:18.257Z,24.07
2019-05-02T07:33:51.240Z,25.57
2019-05-02T07:36:22.821Z,24.53
2019-05-02T07:38:57.587Z,25.97
2019-05-02T07:41:28.952Z,25.20
2019-05-02T07:44:00.640Z,25.50
2019-05-02T07:46:32.196Z,24.50
2019-05-02T07:49:03.340Z,25.93
2019-05-02T07:51:34.454Z,25.20
2019-05-02T07:54:07.479Z,24.67
2019-05-02T07:56:38.545Z,24.33
2019-05-02T07:59:11.206Z,24.97
2019-05-02T08:01:44.832Z,26.50
2019-05-02T08:04:15.446Z,24.80
2019-05-02T08:06:46.690Z,26.47
2019-05-02T08:09:17.821Z,25.37
2019-05-02T08:11:49.242Z,25.67
2019-05-02T08:14:22.319Z,25.70
2019-05-02T08:17:05.516Z,24.30
2019-05-02T08:19:28.986Z,24.60
2019-05-02T08:22:04.735Z,26.40
2019-05-02T08:24:37.914Z,25.13
2019-05-02T08:27:34.661Z,25.40
2019-05-02T08:30:09.351Z,25.70
2019-05-02T08:32:40.804Z,26.50
2019-05-02T08:35:12.575Z,27.40
2019-05-02T08:37:43.790Z,25.60
2019-05-02T08:40:15.145Z,25.10
2019-05-02T08:42:47.704Z,26.23
2019-05-02T08:45:20.612Z,27.47
2019-05-02T08:47:51.781Z,26.13
2019-05-02T08:50:27.187Z,26.77
2019-05-02T08:52:56.668Z,26.60
2019-05-02T08:55:30.042Z,25.90
2019-05-02T08:58:06.095Z,26.60
2019-05-02T09:00:37.621Z,25.67
2019-05-02T09:03:07.889Z,26.40
2019-05-02T09:05:45.341Z,27.47
2019-05-02T09:08:16.718Z,26.93
2019-05-02T09:10:47.759Z,26.77
2019-05-02T09:13:26.485Z,27.83
2019-05-02T09:15:54.158Z,27.10
2019-05-02T09:18:35.017Z,26.37
2019-05-02T09:21:02.067Z,26.00
2019-05-02T09:23:37.198Z,26.57
2019-05-02T09:26:09.058Z,27.17
2019-05-02T09:28:42.074Z,25.67
2019-05-02T09:31:15.208Z,27.17
2019-05-02T09:33:48.187Z,28.00
2019-05-02T09:36:19.842Z,27.17
2019-05-02T09:38:55.904Z,26.50
2019-05-02T09:41:27.033Z,26.10
2019-05-02T09:43:56.905Z,26.20
2019-05-02T09:46:29.855Z,27.83
2019-05-02T09:49:04.319Z,25.30
2019-05-02T09:51:35.525Z,27.97
2019-05-02T09:54:06.990Z,27.50
2019-05-02T09:56:39.595Z,26.20
2019-05-02T09:59:26.836Z,28.77
2019-05-02T10:01:48.204Z,27.33
2019-05-02T10:04:19.448Z,27.23
2019-05-02T10:06:52.542Z,27.60
2019-05-02T10:09:27.081Z,27.77
2019-05-02T10:11:58.021Z,27.20
2019-05-02T10:14:30.297Z,28.40
2019-05-02T10:17:06.998Z,27.47
2019-05-02T10:19:35.349Z,26.80
2019-05-02T10:22:06.994Z,26.33
2019-05-02T10:24:38.463Z,27.10
2019-05-02T10:27:09.811Z,28.53
2019-05-02T10:29:42.484Z,26.03
2019-05-02T10:32:16.644Z,28.07
2019-05-02T10:34:53.101Z,27.70
2019-05-02T10:37:22.330Z,25.43
2019-05-02T10:39:55.818Z,27.00
2019-05-02T10:42:27.534Z,26.03
2019-05-02T10:45:24.061Z,25.60
2019-05-02T10:47:55.216Z,26.27
2019-05-02T10:50:36.084Z,27.90
2019-05-02T10:53:14.313Z,26.83
2019-05-02T10:55:42.092Z,24.23
2019-05-02T10:58:13.778Z,25.87
2019-05-02T11:00:45.576Z,26.00
2019-05-02T11:03:38.137Z,25.40
2019-05-02T11:06:10.182Z,25.83
2019-05-02T11:08:45.712Z,25.93
2019-05-02T11:11:14.020Z,25.73
2019-05-02T11:14:07.076Z,26.23
2019-05-02T11:16:59.074Z,26.83
2019-05-02T11:19:56.641Z,25.27
2019-05-02T11:22:27.749Z,25.63
2019-05-02T11:24:59.260Z,27.30
2019-05-02T11:27:32.860Z,25.50
2019-05-02T11:30:06.135Z,24.93
2019-05-02T11:32:39.122Z,24.70
2019-05-02T11:35:12.318Z,27.07
2019-05-02T11:37:43.465Z,26.00
2019-05-02T11:40:15.421Z,27.23
2019-05-02T11:42:47.956Z,25.80
2019-05-02T11:45:19.105Z,27.47
2019-05-02T11:47:50.305Z,27.30
2019-05-02T11:50:26.614Z,27.10
2019-05-02T11:52:57.745Z,26.60
2019-05-02T11:55:29.187Z,26.70
2019-05-02T11:58:07.895Z,26.23
2019-05-02T12:00:34.945Z,25.50
2019-05-02T12:03:28.121Z,27.77
2019-05-02T12:06:01.994Z,30.50
2019-05-02T12:08:33.662Z,28.97
2019-05-02T12:11:08.432Z,27.50
2019-05-02T12:13:38.973Z,26.93
2019-05-02T12:16:12.600Z,27.13
2019-05-02T12:18:44.086Z,27.70
2019-05-02T12:21:15.763Z,27.43
2019-05-02T12:23:46.971Z,27.13
2019-05-02T12:26:18.162Z,25.07
2019-05-02T12:28:52.476Z,25.97
2019-05-02T12:31:32.449Z,25.03
2019-05-02T12:34:07.547Z,26.77
2019-05-02T12:36:42.735Z,25.60
2019-05-02T12:39:15.708Z,24.13
2019-05-02T12:41:47.191Z,25.33
2019-05-02T12:44:18.753Z,25.17
2019-05-02T12:46:51.918Z,25.13
2019-05-02T12:49:27.722Z,25.33
2019-05-02T12:51:55.988Z,24.10
2019-05-02T12:54:27.164Z,23.07
2019-05-02T12:56:58.925Z,22.87
2019-05-02T12:59:32.092Z,23.80
2019-05-02T13:02:05.729Z,23.70
2019-05-02T13:04:36.806Z,25.17
2019-05-02T13:07:10.192Z,23.50
2019-05-02T13:09:42.040Z,24.00
2019-05-02T13:12:17.785Z,26.00
2019-05-02T13:14:49.136Z,24.90
2019-05-02T13:17:22.522Z,25.00
2019-05-02T13:19:57.042Z,23.90
2019-05-02T13:22:52.635Z,24.57
2019-05-02T13:25:27.245Z,24.87
2019-05-02T13:28:01.948Z,25.17
2019-05-02T13:30:46.475Z,25.20
2019-05-02T13:33:27.232Z,26.17
2019-05-02T13:35:59.712Z,25.97
2019-05-02T13:38:32.904Z,26.13
2019-05-02T13:41:07.120Z,26.37
2019-05-02T13:43:45.436Z,26.43
2019-05-02T13:46:22.186Z,27.20
2019-05-02T13:48:54.894Z,26.43
2019-05-02T13:51:26.348Z,26.10
2019-05-02T13:54:02.333Z,27.20
2019-05-02T13:56:52.823Z,26.63
2019-05-02T13:59:28.045Z,26.97
2019-05-02T14:02:02.772Z,27.40
2019-05-02T14:04:35.751Z,29.17
2019-05-02T14:07:07.626Z,27.40
2019-05-02T14:09:57.962Z,27.43
2019-05-02T14:12:58.419Z,26.57
2019-05-02T14:15:35.090Z,28.23
2019-05-02T14:18:06.256Z,28.03
2019-05-02T14:20:38.450Z,27.63
2019-05-02T14:23:12.054Z,28.73
2019-05-02T14:25:43.058Z,29.27
2019-05-02T14:28:14.127Z,29.90
2019-05-02T14:30:46.350Z,29.23
2019-05-02T14:33:23.262Z,30.73
2019-05-02T14:35:55.480Z,33.03
2019-05-02T14:38:26.671Z,32.40
2019-05-02T14:41:12.427Z,30.77
2019-05-02T14:43:53.091Z,31.53
2019-05-02T14:46:33.227Z,31.73
2019-05-02T14:49:02.531Z,31.50
2019-05-02T14:51:36.456Z,31.60
2019-05-02T14:54:08.339Z,31.43
2019-05-02T14:56:52.135Z,29.07
2019-05-02T14:59:24.846Z,27.80
2019-05-02T15:02:05.670Z,28.93
2019-05-02T15:04:38.085Z,31.83
2019-05-02T15:07:12.939Z,31.63
2019-05-02T15:09:44.603Z,30.30
2019-05-02T15:12:18.993Z,31.77
2019-05-02T15:14:57.366Z,31.90
2019-05-02T15:17:28.100Z,34.67
2019-05-02T15:19:59.309Z,34.33
2019-05-02T15:22:37.338Z,34.20
2019-05-02T15:25:08.023Z,36.57
2019-05-02T15:27:42.511Z,37.47
2019-05-02T15:30:12.881Z,34.13
2019-05-02T15:32:58.248Z,35.07
2019-05-02T15:35:42.453Z,35.83
2019-05-02T15:38:20.863Z,36.53
2019-05-02T15:40:50.681Z,37.37
2019-05-02T15:43:22.320Z,36.50
2019-05-02T15:45:54.869Z,36.27
2019-05-02T15:48:27.747Z,37.73
2019-05-02T15:51:00.113Z,35.40
2019-05-02T15:53:39.146Z,36.23
2019-05-02T15:56:18.714Z,33.03
2019-05-02T15:58:44.611Z,33.63
2019-05-02T16:01:26.757Z,31.87
2019-05-02T16:04:01.619Z,32.40
2019-05-02T16:06:34.013Z,29.47
2019-05-02T16:09:07.593Z,32.00
2019-05-02T16:11:39.931Z,31.37
2019-05-02T16:14:12.812Z,30.20
2019-05-02T16:16:45.406Z,28.57
2019-05-02T16:19:27.149Z,27.87
2019-05-02T16:21:59.500Z,28.47
2019-05-02T16:24:32.098Z,26.30
2019-05-02T16:27:04.421Z,27.73
2019-05-02T16:29:35.560Z,28.30
2019-05-02T16:32:37.851Z,26.70
2019-05-02T16:35:15.283Z,28.23
2019-05-02T16:37:46.736Z,28.93
2019-05-02T16:40:22.134Z,26.37
2019-05-02T16:42:52.769Z,26.87
2019-05-02T16:45:25.337Z,26.53
2019-05-02T16:48:00.142Z,25.83
2019-05-02T16:50:36.538Z,26.00
2019-05-02T16:53:07.253Z,24.43
2019-05-02T16:55:43.437Z,25.00
2019-05-02T16:58:14.693Z,24.03
2019-05-02T17:00:47.685Z,24.70
2019-05-02T17:03:22.711Z,22.60
2019-05-02T17:05:54.405Z,23.07
2019-05-02T17:08:39.599Z,24.13
2019-05-02T17:11:16.110Z,24.47
2019-05-02T17:13:48.580Z,22.77
2019-05-02T17:16:22.139Z,24.17
2019-05-02T17:18:56.515Z,23.33
2019-05-02T17:21:33.677Z,24.93
2019-05-02T17:24:02.604Z,25.30
2019-05-02T17:26:34.569Z,27.00
2019-05-02T17:29:11.937Z,27.23
2019-05-02T17:31:44.111Z,28.30
2019-05-02T17:34:15.762Z,28.23
2019-05-02T17:36:51.859Z,28.40
2019-05-02T17:39:25.436Z,29.83
2019-05-02T17:42:00.243Z,31.70
2019-05-02T17:44:30.882Z,32.13
2019-05-02T17:47:04.238Z,32.47
2019-05-02T17:49:43.411Z,32.90
2019-05-02T17:52:26.838Z,34.20
2019-05-02T17:54:57.490Z,32.00
2019-05-02T17:57:33.467Z,33.67
2019-05-02T18:00:12.224Z,32.77
2019-05-02T18:02:47.047Z,33.43
2019-05-02T18:05:18.608Z,33.57
2019-05-02T18:07:52.652Z,34.60
2019-05-02T18:10:25.576Z,32.80
2019-05-02T18:13:02.521Z,32.13
2019-05-02T18:15:42.634Z,32.47
2019-05-02T18:18:16.401Z,30.80
2019-05-02T18:20:47.979Z,33.17
2019-05-02T18:23:27.721Z,31.80
2019-05-02T18:26:02.778Z,30.00
2019-05-02T18:28:45.544Z,29.90
2019-05-02T18:31:06.971Z,30.50
2019-05-02T18:33:41.009Z,30.37
2019-05-02T18:36:17.361Z,31.13
2019-05-02T18:38:52.445Z,26.47
2019-05-02T18:41:22.402Z,28.93
2019-05-02T18:43:55.246Z,31.00
2019-05-02T18:46:28.605Z,28.77
2019-05-02T18:49:02.762Z,30.23
2019-05-02T18:51:36.873Z,30.90
2019-05-02T18:54:12.008Z,23.80
2019-05-02T18:56:50.101Z,10.33
2019-05-02T18:59:19.806Z,7.00
2019-05-02T19:01:52.680Z,6.77
2019-05-02T19:04:29.831Z,7.37
2019-05-02T19:07:00.531Z,7.50
2019-05-02T19:09:34.806Z,7.47
2019-05-02T19:12:21.419Z,6.40
2019-05-02T19:14:49.268Z,7.50
2019-05-02T19:17:25.310Z,7.13
2019-05-02T19:20:01.402Z,8.60
2019-05-02T19:22:47.944Z,7.50
2019-05-02T19:25:12.086Z,8.80
2019-05-02T19:27:59.425Z,7.13
2019-05-02T19:30:36.096Z,7.57
2019-05-02T19:33:12.117Z,6.00
2019-05-02T19:35:50.086Z,6.90
2019-05-02T19:38:26.395Z,6.70
2019-05-02T19:41:05.499Z,6.03
2019-05-02T19:43:40.266Z,7.03
2019-05-02T19:46:12.863Z,8.03
2019-05-02T19:48:47.136Z,7.37
2019-05-02T19:51:22.584Z,7.63
2019-05-02T19:54:05.473Z,7.70
2019-05-02T19:56:45.438Z,7.20
2019-05-02T19:59:16.739Z,7.43
2019-05-02T20:01:52.299Z,7.93
2019-05-02T20:04:29.582Z,8.23
2019-05-02T20:07:04.434Z,7.23
2019-05-02T20:09:43.584Z,7.40
2019-05-02T20:12:18.175Z,6.63
2019-05-02T20:14:52.660Z,7.37
2019-05-02T20:17:27.932Z,7.10
2019-05-02T20:20:07.093Z,7.87
2019-05-02T20:22:41.710Z,7.53
2019-05-02T20:25:18.008Z,8.10
2019-05-02T20:27:53.831Z,8.03
2019-05-02T20:30:32.716Z,6.60
2019-05-02T20:33:07.120Z,6.37
2019-05-02T20:35:43.289Z,4.80
2019-05-02T20:38:21.733Z,4.93
2019-05-02T20:41:00.431Z,4.10
2019-05-02T20:43:35.920Z,3.97
2019-05-02T20:46:12.143Z,3.67
2019-05-02T20:48:48.509Z,3.60
2019-05-02T20:51:22.864Z,2.73
2019-05-02T20:53:56.963Z,2.47
2019-05-02T20:56:32.091Z,1.90
2019-05-02T20:59:07.716Z,2.20
2019-05-02T21:01:43.058Z,2.03
2019-05-02T21:04:17.090Z,2.80
2019-05-02T21:07:09.718Z,2.10
2019-05-02T21:10:03.857Z,2.10
2019-05-02T21:12:38.189Z,2.70
2019-05-02T21:15:18.216Z,2.40
2019-05-02T21:17:52.155Z,2.40
2019-05-02T21:20:26.283Z,2.77
2019-05-02T21:23:01.975Z,3.00
2019-05-02T21:25:36.014Z,2.67
2019-05-02T21:28:12.001Z,2.03
2019-05-02T21:30:49.332Z,2.77
2019-05-02T21:33:36.326Z,2.80
2019-05-02T21:36:12.040Z,2.97
2019-05-02T21:38:46.298Z,2.70
2019-05-02T21:41:22.240Z,2.93
2019-05-02T21:43:58.590Z,2.87
2019-05-02T21:46:32.403Z,2.80
2019-05-02T21:49:08.975Z,2.60
2019-05-02T21:51:51.794Z,2.73
2019-05-02T21:54:33.724Z,3.23
2019-05-02T21:57:12.490Z,2.73
2019-05-02T21:59:46.691Z,3.33
2019-05-02T22:02:22.460Z,3.20
2019-05-02T22:04:58.193Z,3.53
2019-05-02T22:07:32.378Z,2.87
2019-05-02T22:10:08.481Z,3.10
2019-05-02T22:12:42.326Z,3.70
2019-05-02T22:15:18.366Z,3.10
2019-05-02T22:17:52.312Z,3.37
2019-05-02T22:20:28.030Z,2.90
2019-05-02T22:23:02.404Z,3.43
2019-05-02T22:25:36.157Z,3.40
2019-05-02T22:28:12.578Z,3.83
2019-05-02T22:30:47.765Z,4.00
2019-05-02T22:33:22.181Z,3.73
2019-05-02T22:35:56.668Z,4.13
2019-05-02T22:39:05.426Z,4.43
2019-05-02T22:41:39.346Z,5.10
2019-05-02T22:44:14.192Z,4.40
2019-05-02T22:46:47.757Z,4.90
2019-05-02T22:49:23.638Z,5.23
2019-05-02T22:51:57.318Z,5.10
2019-05-02T22:54:34.078Z,5.07
2019-05-02T22:57:08.929Z,5.00
2019-05-02T22:59:42.547Z,5.00
2019-05-02T23:02:17.995Z,5.40
2019-05-02T23:04:52.692Z,5.50
2019-05-02T23:07:27.845Z,5.03
2019-05-02T23:10:02.168Z,5.33
2019-05-02T23:12:37.239Z,5.20
2019-05-02T23:15:12.561Z,4.90
2019-05-02T23:17:54.060Z,4.67
2019-05-02T23:20:27.733Z,4.90
2019-05-02T23:23:01.908Z,4.27
2019-05-02T23:26:05.798Z,5.17
2019-05-02T23:28:42.308Z,4.47
2019-05-02T23:31:16.325Z,4.70
2019-05-02T23:33:59.128Z,4.83
2019-05-02T23:36:33.781Z,4.50
2019-05-02T23:39:12.470Z,4.97
2019-05-02T23:41:48.061Z,4.57
2019-05-02T23:44:22.840Z,4.90
2019-05-02T23:46:56.771Z,5.00
2019-05-02T23:49:32.352Z,4.50
2019-05-02T23:52:07.254Z,4.20
2019-05-02T23:54:49.998Z,4.40
2019-05-02T23:57:19.067Z,4.53
2019-05-02T23:59:52.871Z,5.03
